sensor_id;sensor_type;location;lat;lon;timestamp;P1;durP1;ratioP1;P2;durP2;ratioP2
69551;SDS011;63774;45.292;11.784;2023-08-08T00:01:57;3.20;;;1.60;;
69551;SDS011;63774;45.292;11.784;2023-08-08T00:04:23;2.80;;;1.50;;
69551;SDS011;63774;45.292;11.784;2023-08-08T00:06:48;5.80;;;1.50;;
69551;SDS011;63774;45.292;11.784;2023-08-08T00:09:13;3.00;;;1.80;;
69551;SDS011;63774;45.292;11.784;2023-08-08T00:11:39;2.00;;;1.30;;
69551;SDS011;63774;45.292;11.784;2023-08-08T00:14:04;3.40;;;1.60;;
69551;SDS011;63774;45.292;11.784;2023-08-08T00:16:30;2.80;;;1.30;;
69551;SDS011;63774;45.292;11.784;2023-08-08T00:18:55;2.80;;;1.40;;
69551;SDS011;63774;45.292;11.784;2023-08-08T00:21:21;4.30;;;1.50;;
69551;SDS011;63774;45.292;11.784;2023-08-08T00:23:46;2.40;;;1.40;;
69551;SDS011;63774;45.292;11.784;2023-08-08T00:26:12;3.10;;;1.30;;
69551;SDS011;63774;45.292;11.784;2023-08-08T00:28:37;2.80;;;1.30;;
69551;SDS011;63774;45.292;11.784;2023-08-08T00:31:03;3.30;;;1.80;;
69551;SDS011;63774;45.292;11.784;2023-08-08T00:33:28;2.80;;;1.60;;
69551;SDS011;63774;45.292;11.784;2023-08-08T00:35:53;3.90;;;1.60;;
69551;SDS011;63774;45.292;11.784;2023-08-08T00:38:19;3.80;;;1.40;;
69551;SDS011;63774;45.292;11.784;2023-08-08T00:40:45;3.80;;;1.70;;
69551;SDS011;63774;45.292;11.784;2023-08-08T00:43:10;4.30;;;1.70;;
69551;SDS011;63774;45.292;11.784;2023-08-08T00:45:36;3.40;;;1.70;;
69551;SDS011;63774;45.292;11.784;2023-08-08T00:48:02;5.10;;;2.00;;
69551;SDS011;63774;45.292;11.784;2023-08-08T00:50:29;3.60;;;1.50;;
69551;SDS011;63774;45.292;11.784;2023-08-08T00:52:54;3.10;;;1.80;;
69551;SDS011;63774;45.292;11.784;2023-08-08T00:55:20;3.60;;;1.60;;
69551;SDS011;63774;45.292;11.784;2023-08-08T00:57:47;5.50;;;1.60;;
69551;SDS011;63774;45.292;11.784;2023-08-08T01:00:13;3.30;;;1.70;;
69551;SDS011;63774;45.292;11.784;2023-08-08T01:02:38;2.60;;;1.50;;
69551;SDS011;63774;45.292;11.784;2023-08-08T01:05:04;2.40;;;1.50;;
69551;SDS011;63774;45.292;11.784;2023-08-08T01:10:13;2.90;;;1.30;;
69551;SDS011;63774;45.292;11.784;2023-08-08T01:12:44;4.10;;;1.60;;
69551;SDS011;63774;45.292;11.784;2023-08-08T01:15:13;3.00;;;1.50;;
69551;SDS011;63774;45.292;11.784;2023-08-08T01:17:39;5.50;;;1.60;;
69551;SDS011;63774;45.292;11.784;2023-08-08T01:20:08;4.80;;;1.40;;
69551;SDS011;63774;45.292;11.784;2023-08-08T01:25:55;2.20;;;1.30;;
69551;SDS011;63774;45.292;11.784;2023-08-08T01:28:23;2.00;;;1.20;;
69551;SDS011;63774;45.292;11.784;2023-08-08T01:30:50;3.40;;;1.60;;
69551;SDS011;63774;45.292;11.784;2023-08-08T01:33:16;2.00;;;1.30;;
69551;SDS011;63774;45.292;11.784;2023-08-08T01:35:44;4.10;;;1.40;;
69551;SDS011;63774;45.292;11.784;2023-08-08T01:40:49;2.40;;;1.40;;
69551;SDS011;63774;45.292;11.784;2023-08-08T01:43:15;5.70;;;1.80;;
69551;SDS011;63774;45.292;11.784;2023-08-08T01:45:41;2.20;;;1.30;;
69551;SDS011;63774;45.292;11.784;2023-08-08T01:48:07;2.80;;;1.40;;
69551;SDS011;63774;45.292;11.784;2023-08-08T01:50:34;7.90;;;1.60;;
69551;SDS011;63774;45.292;11.784;2023-08-08T01:52:59;2.50;;;1.30;;
69551;SDS011;63774;45.292;11.784;2023-08-08T01:55:25;5.00;;;1.50;;
69551;SDS011;63774;45.292;11.784;2023-08-08T01:57:50;2.10;;;1.20;;
69551;SDS011;63774;45.292;11.784;2023-08-08T02:00:15;2.20;;;1.30;;
69551;SDS011;63774;45.292;11.784;2023-08-08T02:02:41;3.50;;;1.40;;
69551;SDS011;63774;45.292;11.784;2023-08-08T02:05:06;4.00;;;1.20;;
69551;SDS011;63774;45.292;11.784;2023-08-08T02:07:32;2.60;;;1.10;;
69551;SDS011;63774;45.292;11.784;2023-08-08T02:09:57;2.90;;;1.30;;
69551;SDS011;63774;45.292;11.784;2023-08-08T02:12:23;1.70;;;1.00;;
69551;SDS011;63774;45.292;11.784;2023-08-08T02:14:48;3.80;;;1.00;;
69551;SDS011;63774;45.292;11.784;2023-08-08T02:17:13;2.30;;;1.00;;
69551;SDS011;63774;45.292;11.784;2023-08-08T02:19:39;1.70;;;1.10;;
69551;SDS011;63774;45.292;11.784;2023-08-08T02:22:04;2.20;;;1.10;;
69551;SDS011;63774;45.292;11.784;2023-08-08T02:24:29;3.60;;;1.20;;
69551;SDS011;63774;45.292;11.784;2023-08-08T02:26:55;2.40;;;0.90;;
69551;SDS011;63774;45.292;11.784;2023-08-08T02:29:21;2.50;;;1.10;;
69551;SDS011;63774;45.292;11.784;2023-08-08T02:31:46;2.10;;;1.00;;
69551;SDS011;63774;45.292;11.784;2023-08-08T02:34:11;3.30;;;1.00;;
69551;SDS011;63774;45.292;11.784;2023-08-08T02:36:37;2.90;;;1.00;;
69551;SDS011;63774;45.292;11.784;2023-08-08T02:39:02;1.80;;;0.80;;
69551;SDS011;63774;45.292;11.784;2023-08-08T02:41:28;2.40;;;0.80;;
69551;SDS011;63774;45.292;11.784;2023-08-08T02:43:53;1.90;;;0.60;;
69551;SDS011;63774;45.292;11.784;2023-08-08T02:46:19;2.60;;;0.90;;
69551;SDS011;63774;45.292;11.784;2023-08-08T02:48:44;2.10;;;0.80;;
69551;SDS011;63774;45.292;11.784;2023-08-08T02:51:09;1.30;;;0.60;;
69551;SDS011;63774;45.292;11.784;2023-08-08T02:53:35;1.00;;;0.60;;
69551;SDS011;63774;45.292;11.784;2023-08-08T02:56:01;1.50;;;0.70;;
69551;SDS011;63774;45.292;11.784;2023-08-08T02:58:26;2.00;;;0.80;;
69551;SDS011;63774;45.292;11.784;2023-08-08T03:00:52;2.80;;;0.80;;
69551;SDS011;63774;45.292;11.784;2023-08-08T03:03:17;2.20;;;0.90;;
69551;SDS011;63774;45.292;11.784;2023-08-08T03:05:43;2.40;;;1.00;;
69551;SDS011;63774;45.292;11.784;2023-08-08T03:08:10;3.50;;;0.90;;
69551;SDS011;63774;45.292;11.784;2023-08-08T03:10:36;2.00;;;0.90;;
69551;SDS011;63774;45.292;11.784;2023-08-08T03:13:01;2.70;;;1.00;;
69551;SDS011;63774;45.292;11.784;2023-08-08T03:15:27;1.70;;;0.70;;
69551;SDS011;63774;45.292;11.784;2023-08-08T03:17:52;1.50;;;0.90;;
69551;SDS011;63774;45.292;11.784;2023-08-08T03:20:17;0.90;;;0.50;;
69551;SDS011;63774;45.292;11.784;2023-08-08T03:22:43;3.30;;;0.90;;
69551;SDS011;63774;45.292;11.784;2023-08-08T03:25:08;1.30;;;0.60;;
69551;SDS011;63774;45.292;11.784;2023-08-08T03:27:35;1.80;;;0.70;;
69551;SDS011;63774;45.292;11.784;2023-08-08T03:30:01;3.20;;;0.70;;
69551;SDS011;63774;45.292;11.784;2023-08-08T03:32:27;2.30;;;0.60;;
69551;SDS011;63774;45.292;11.784;2023-08-08T03:34:53;0.80;;;0.50;;
69551;SDS011;63774;45.292;11.784;2023-08-08T03:37:18;1.30;;;0.70;;
69551;SDS011;63774;45.292;11.784;2023-08-08T03:39:44;2.00;;;0.60;;
69551;SDS011;63774;45.292;11.784;2023-08-08T03:42:09;1.40;;;0.60;;
69551;SDS011;63774;45.292;11.784;2023-08-08T03:44:34;1.00;;;0.40;;
69551;SDS011;63774;45.292;11.784;2023-08-08T03:47:00;1.30;;;0.70;;
69551;SDS011;63774;45.292;11.784;2023-08-08T03:49:25;1.30;;;0.50;;
69551;SDS011;63774;45.292;11.784;2023-08-08T03:51:51;2.50;;;0.50;;
69551;SDS011;63774;45.292;11.784;2023-08-08T03:54:17;2.20;;;0.60;;
69551;SDS011;63774;45.292;11.784;2023-08-08T03:56:43;1.90;;;0.60;;
69551;SDS011;63774;45.292;11.784;2023-08-08T03:59:08;1.80;;;0.70;;
69551;SDS011;63774;45.292;11.784;2023-08-08T04:01:35;2.00;;;0.50;;
69551;SDS011;63774;45.292;11.784;2023-08-08T04:04:00;1.60;;;0.50;;
69551;SDS011;63774;45.292;11.784;2023-08-08T04:06:26;1.40;;;0.50;;
69551;SDS011;63774;45.292;11.784;2023-08-08T04:08:51;1.40;;;0.60;;
69551;SDS011;63774;45.292;11.784;2023-08-08T04:11:17;1.70;;;0.70;;
69551;SDS011;63774;45.292;11.784;2023-08-08T04:13:42;1.10;;;0.50;;
69551;SDS011;63774;45.292;11.784;2023-08-08T04:16:07;1.10;;;0.50;;
69551;SDS011;63774;45.292;11.784;2023-08-08T04:18:33;2.40;;;0.60;;
69551;SDS011;63774;45.292;11.784;2023-08-08T04:20:58;2.70;;;0.60;;
69551;SDS011;63774;45.292;11.784;2023-08-08T04:23:24;1.10;;;0.60;;
69551;SDS011;63774;45.292;11.784;2023-08-08T04:25:51;1.30;;;0.70;;
69551;SDS011;63774;45.292;11.784;2023-08-08T04:28:17;1.40;;;0.70;;
69551;SDS011;63774;45.292;11.784;2023-08-08T04:30:42;1.40;;;0.80;;
69551;SDS011;63774;45.292;11.784;2023-08-08T04:33:08;1.70;;;0.70;;
69551;SDS011;63774;45.292;11.784;2023-08-08T04:35:33;1.30;;;0.60;;
69551;SDS011;63774;45.292;11.784;2023-08-08T04:37:58;2.70;;;0.90;;
69551;SDS011;63774;45.292;11.784;2023-08-08T04:40:24;1.20;;;0.70;;
69551;SDS011;63774;45.292;11.784;2023-08-08T04:42:49;3.50;;;0.60;;
69551;SDS011;63774;45.292;11.784;2023-08-08T04:45:15;2.10;;;0.70;;
69551;SDS011;63774;45.292;11.784;2023-08-08T04:47:41;1.30;;;0.60;;
69551;SDS011;63774;45.292;11.784;2023-08-08T04:50:06;1.30;;;0.60;;
69551;SDS011;63774;45.292;11.784;2023-08-08T04:52:32;1.10;;;0.50;;
69551;SDS011;63774;45.292;11.784;2023-08-08T04:54:57;2.80;;;0.60;;
69551;SDS011;63774;45.292;11.784;2023-08-08T04:57:23;2.50;;;0.80;;
69551;SDS011;63774;45.292;11.784;2023-08-08T04:59:48;2.40;;;0.50;;
69551;SDS011;63774;45.292;11.784;2023-08-08T05:02:14;2.00;;;0.90;;
69551;SDS011;63774;45.292;11.784;2023-08-08T05:04:39;1.10;;;0.70;;
69551;SDS011;63774;45.292;11.784;2023-08-08T05:07:05;1.70;;;0.60;;
69551;SDS011;63774;45.292;11.784;2023-08-08T05:09:31;1.80;;;0.70;;
69551;SDS011;63774;45.292;11.784;2023-08-08T05:11:56;2.00;;;0.60;;
69551;SDS011;63774;45.292;11.784;2023-08-08T05:14:22;1.20;;;0.60;;
69551;SDS011;63774;45.292;11.784;2023-08-08T05:16:47;1.70;;;0.60;;
69551;SDS011;63774;45.292;11.784;2023-08-08T05:19:13;1.50;;;0.60;;
69551;SDS011;63774;45.292;11.784;2023-08-08T05:21:38;1.70;;;0.60;;
69551;SDS011;63774;45.292;11.784;2023-08-08T05:24:04;1.80;;;0.80;;
69551;SDS011;63774;45.292;11.784;2023-08-08T05:26:29;1.80;;;0.70;;
69551;SDS011;63774;45.292;11.784;2023-08-08T05:28:54;1.30;;;0.70;;
69551;SDS011;63774;45.292;11.784;2023-08-08T05:31:20;1.80;;;0.70;;
69551;SDS011;63774;45.292;11.784;2023-08-08T05:33:47;1.70;;;0.60;;
69551;SDS011;63774;45.292;11.784;2023-08-08T05:36:13;2.60;;;0.80;;
69551;SDS011;63774;45.292;11.784;2023-08-08T05:38:39;2.00;;;0.60;;
69551;SDS011;63774;45.292;11.784;2023-08-08T05:41:04;2.20;;;0.90;;
69551;SDS011;63774;45.292;11.784;2023-08-08T05:43:29;1.50;;;0.60;;
69551;SDS011;63774;45.292;11.784;2023-08-08T05:45:55;1.40;;;0.50;;
69551;SDS011;63774;45.292;11.784;2023-08-08T05:48:20;1.10;;;0.60;;
69551;SDS011;63774;45.292;11.784;2023-08-08T05:50:45;2.70;;;0.60;;
69551;SDS011;63774;45.292;11.784;2023-08-08T05:53:11;1.20;;;0.50;;
69551;SDS011;63774;45.292;11.784;2023-08-08T05:55:36;3.40;;;0.70;;
69551;SDS011;63774;45.292;11.784;2023-08-08T05:58:02;1.40;;;0.60;;
69551;SDS011;63774;45.292;11.784;2023-08-08T06:00:27;2.30;;;0.70;;
69551;SDS011;63774;45.292;11.784;2023-08-08T06:02:53;2.10;;;1.20;;
69551;SDS011;63774;45.292;11.784;2023-08-08T06:05:19;1.20;;;0.60;;
69551;SDS011;63774;45.292;11.784;2023-08-08T06:07:47;3.90;;;0.80;;
69551;SDS011;63774;45.292;11.784;2023-08-08T06:10:12;1.60;;;0.60;;
69551;SDS011;63774;45.292;11.784;2023-08-08T06:12:38;1.20;;;0.50;;
69551;SDS011;63774;45.292;11.784;2023-08-08T06:15:03;2.00;;;0.50;;
69551;SDS011;63774;45.292;11.784;2023-08-08T06:17:29;1.10;;;0.40;;
69551;SDS011;63774;45.292;11.784;2023-08-08T06:19:54;0.90;;;0.40;;
69551;SDS011;63774;45.292;11.784;2023-08-08T06:22:22;1.30;;;0.50;;
69551;SDS011;63774;45.292;11.784;2023-08-08T06:24:47;1.80;;;0.60;;
69551;SDS011;63774;45.292;11.784;2023-08-08T06:27:13;2.80;;;0.40;;
69551;SDS011;63774;45.292;11.784;2023-08-08T06:29:38;0.70;;;0.30;;
69551;SDS011;63774;45.292;11.784;2023-08-08T06:32:04;1.60;;;0.50;;
69551;SDS011;63774;45.292;11.784;2023-08-08T06:34:29;1.50;;;0.30;;
69551;SDS011;63774;45.292;11.784;2023-08-08T06:36:55;1.10;;;0.60;;
69551;SDS011;63774;45.292;11.784;2023-08-08T06:39:20;3.00;;;0.60;;
69551;SDS011;63774;45.292;11.784;2023-08-08T06:41:47;2.50;;;0.60;;
69551;SDS011;63774;45.292;11.784;2023-08-08T06:44:12;1.30;;;0.70;;
69551;SDS011;63774;45.292;11.784;2023-08-08T06:46:38;5.20;;;0.60;;
69551;SDS011;63774;45.292;11.784;2023-08-08T06:49:03;1.60;;;0.40;;
69551;SDS011;63774;45.292;11.784;2023-08-08T06:51:29;1.40;;;0.60;;
69551;SDS011;63774;45.292;11.784;2023-08-08T06:53:55;0.80;;;0.40;;
69551;SDS011;63774;45.292;11.784;2023-08-08T06:56:21;2.90;;;0.60;;
69551;SDS011;63774;45.292;11.784;2023-08-08T06:58:46;1.30;;;0.40;;
69551;SDS011;63774;45.292;11.784;2023-08-08T07:01:11;1.10;;;0.40;;
69551;SDS011;63774;45.292;11.784;2023-08-08T07:03:38;3.50;;;0.50;;
69551;SDS011;63774;45.292;11.784;2023-08-08T07:06:03;0.90;;;0.40;;
69551;SDS011;63774;45.292;11.784;2023-08-08T07:08:29;1.10;;;0.40;;
69551;SDS011;63774;45.292;11.784;2023-08-08T07:10:56;1.60;;;0.50;;
69551;SDS011;63774;45.292;11.784;2023-08-08T07:13:22;1.40;;;0.50;;
69551;SDS011;63774;45.292;11.784;2023-08-08T07:15:47;0.60;;;0.30;;
69551;SDS011;63774;45.292;11.784;2023-08-08T07:18:12;1.80;;;0.50;;
69551;SDS011;63774;45.292;11.784;2023-08-08T07:20:38;1.40;;;0.50;;
69551;SDS011;63774;45.292;11.784;2023-08-08T07:23:04;1.00;;;0.40;;
69551;SDS011;63774;45.292;11.784;2023-08-08T07:25:29;1.60;;;0.50;;
69551;SDS011;63774;45.292;11.784;2023-08-08T07:27:55;0.60;;;0.40;;
69551;SDS011;63774;45.292;11.784;2023-08-08T07:30:20;1.80;;;0.40;;
69551;SDS011;63774;45.292;11.784;2023-08-08T07:32:46;1.70;;;0.40;;
69551;SDS011;63774;45.292;11.784;2023-08-08T07:35:11;0.70;;;0.40;;
69551;SDS011;63774;45.292;11.784;2023-08-08T07:37:37;0.70;;;0.40;;
69551;SDS011;63774;45.292;11.784;2023-08-08T07:40:03;2.60;;;0.50;;
69551;SDS011;63774;45.292;11.784;2023-08-08T07:42:38;0.70;;;0.40;;
69551;SDS011;63774;45.292;11.784;2023-08-08T07:45:03;1.50;;;0.30;;
69551;SDS011;63774;45.292;11.784;2023-08-08T07:47:29;0.90;;;0.40;;
69551;SDS011;63774;45.292;11.784;2023-08-08T07:49:54;1.50;;;0.40;;
69551;SDS011;63774;45.292;11.784;2023-08-08T07:52:20;2.00;;;0.50;;
69551;SDS011;63774;45.292;11.784;2023-08-08T07:54:45;1.40;;;0.40;;
69551;SDS011;63774;45.292;11.784;2023-08-08T07:57:10;1.60;;;0.50;;
69551;SDS011;63774;45.292;11.784;2023-08-08T07:59:36;1.60;;;0.50;;
69551;SDS011;63774;45.292;11.784;2023-08-08T08:02:01;2.30;;;0.40;;
69551;SDS011;63774;45.292;11.784;2023-08-08T08:04:27;2.10;;;0.40;;
69551;SDS011;63774;45.292;11.784;2023-08-08T08:06:52;2.00;;;0.50;;
69551;SDS011;63774;45.292;11.784;2023-08-08T08:09:17;1.50;;;0.50;;
69551;SDS011;63774;45.292;11.784;2023-08-08T08:11:43;2.60;;;0.50;;
69551;SDS011;63774;45.292;11.784;2023-08-08T08:14:08;2.60;;;0.50;;
69551;SDS011;63774;45.292;11.784;2023-08-08T08:16:33;2.00;;;0.50;;
69551;SDS011;63774;45.292;11.784;2023-08-08T08:19:01;2.60;;;0.50;;
69551;SDS011;63774;45.292;11.784;2023-08-08T08:21:26;1.20;;;0.40;;
69551;SDS011;63774;45.292;11.784;2023-08-08T08:23:52;3.20;;;0.50;;
69551;SDS011;63774;45.292;11.784;2023-08-08T08:26:17;1.00;;;0.40;;
69551;SDS011;63774;45.292;11.784;2023-08-08T08:28:42;1.50;;;0.40;;
69551;SDS011;63774;45.292;11.784;2023-08-08T08:31:08;0.60;;;0.30;;
69551;SDS011;63774;45.292;11.784;2023-08-08T08:33:34;1.10;;;0.30;;
69551;SDS011;63774;45.292;11.784;2023-08-08T08:35:59;1.10;;;0.50;;
69551;SDS011;63774;45.292;11.784;2023-08-08T08:38:25;2.20;;;0.30;;
69551;SDS011;63774;45.292;11.784;2023-08-08T08:40:50;3.20;;;0.40;;
69551;SDS011;63774;45.292;11.784;2023-08-08T08:43:20;1.20;;;0.40;;
69551;SDS011;63774;45.292;11.784;2023-08-08T08:45:49;1.90;;;0.50;;
69551;SDS011;63774;45.292;11.784;2023-08-08T08:48:19;1.70;;;0.40;;
69551;SDS011;63774;45.292;11.784;2023-08-08T08:50:48;2.50;;;0.40;;
69551;SDS011;63774;45.292;11.784;2023-08-08T08:53:14;1.80;;;0.40;;
69551;SDS011;63774;45.292;11.784;2023-08-08T08:55:40;2.10;;;0.40;;
69551;SDS011;63774;45.292;11.784;2023-08-08T08:58:06;1.50;;;0.50;;
69551;SDS011;63774;45.292;11.784;2023-08-08T09:00:32;2.20;;;0.50;;
69551;SDS011;63774;45.292;11.784;2023-08-08T09:02:59;1.90;;;0.50;;
69551;SDS011;63774;45.292;11.784;2023-08-08T09:05:25;1.40;;;0.30;;
69551;SDS011;63774;45.292;11.784;2023-08-08T09:07:51;1.60;;;0.30;;
69551;SDS011;63774;45.292;11.784;2023-08-08T09:10:17;3.50;;;0.50;;
69551;SDS011;63774;45.292;11.784;2023-08-08T09:12:44;2.20;;;0.50;;
69551;SDS011;63774;45.292;11.784;2023-08-08T09:15:10;0.90;;;0.40;;
69551;SDS011;63774;45.292;11.784;2023-08-08T09:17:40;2.00;;;0.40;;
69551;SDS011;63774;45.292;11.784;2023-08-08T09:20:07;2.60;;;0.40;;
69551;SDS011;63774;45.292;11.784;2023-08-08T09:22:33;2.30;;;0.70;;
69551;SDS011;63774;45.292;11.784;2023-08-08T09:24:58;2.10;;;0.50;;
69551;SDS011;63774;45.292;11.784;2023-08-08T09:27:24;1.60;;;0.40;;
69551;SDS011;63774;45.292;11.784;2023-08-08T09:29:49;2.30;;;0.40;;
69551;SDS011;63774;45.292;11.784;2023-08-08T09:32:17;2.30;;;0.70;;
69551;SDS011;63774;45.292;11.784;2023-08-08T09:34:43;1.50;;;0.50;;
69551;SDS011;63774;45.292;11.784;2023-08-08T09:37:09;1.80;;;0.40;;
69551;SDS011;63774;45.292;11.784;2023-08-08T09:39:35;2.70;;;0.50;;
69551;SDS011;63774;45.292;11.784;2023-08-08T09:42:01;1.40;;;0.50;;
69551;SDS011;63774;45.292;11.784;2023-08-08T09:44:29;1.50;;;0.40;;
69551;SDS011;63774;45.292;11.784;2023-08-08T09:46:55;1.10;;;0.30;;
69551;SDS011;63774;45.292;11.784;2023-08-08T09:49:21;2.20;;;0.60;;
69551;SDS011;63774;45.292;11.784;2023-08-08T09:51:47;1.40;;;0.30;;
69551;SDS011;63774;45.292;11.784;2023-08-08T09:54:13;1.10;;;0.60;;
69551;SDS011;63774;45.292;11.784;2023-08-08T09:56:39;1.40;;;0.60;;
69551;SDS011;63774;45.292;11.784;2023-08-08T09:59:05;1.10;;;0.50;;
69551;SDS011;63774;45.292;11.784;2023-08-08T10:01:32;1.20;;;0.60;;
69551;SDS011;63774;45.292;11.784;2023-08-08T10:03:58;3.30;;;0.40;;
69551;SDS011;63774;45.292;11.784;2023-08-08T10:06:24;3.30;;;0.50;;
69551;SDS011;63774;45.292;11.784;2023-08-08T10:08:49;0.90;;;0.40;;
69551;SDS011;63774;45.292;11.784;2023-08-08T10:11:15;1.90;;;0.60;;
69551;SDS011;63774;45.292;11.784;2023-08-08T10:13:52;1.10;;;0.70;;
69551;SDS011;63774;45.292;11.784;2023-08-08T10:16:20;1.30;;;0.40;;
69551;SDS011;63774;45.292;11.784;2023-08-08T10:19:01;1.40;;;0.40;;
69551;SDS011;63774;45.292;11.784;2023-08-08T10:21:28;1.70;;;0.50;;
69551;SDS011;63774;45.292;11.784;2023-08-08T10:24:05;1.70;;;0.50;;
69551;SDS011;63774;45.292;11.784;2023-08-08T10:26:32;0.80;;;0.40;;
69551;SDS011;63774;45.292;11.784;2023-08-08T10:28:58;2.10;;;0.40;;
69551;SDS011;63774;45.292;11.784;2023-08-08T10:31:25;3.00;;;0.40;;
69551;SDS011;63774;45.292;11.784;2023-08-08T10:34:00;0.80;;;0.40;;
69551;SDS011;63774;45.292;11.784;2023-08-08T10:36:42;0.80;;;0.40;;
69551;SDS011;63774;45.292;11.784;2023-08-08T10:39:10;0.90;;;0.30;;
69551;SDS011;63774;45.292;11.784;2023-08-08T10:41:43;1.00;;;0.50;;
69551;SDS011;63774;45.292;11.784;2023-08-08T10:44:10;1.40;;;0.50;;
69551;SDS011;63774;45.292;11.784;2023-08-08T10:46:35;1.40;;;0.30;;
69551;SDS011;63774;45.292;11.784;2023-08-08T10:49:06;2.40;;;0.50;;
69551;SDS011;63774;45.292;11.784;2023-08-08T10:51:38;1.10;;;0.40;;
69551;SDS011;63774;45.292;11.784;2023-08-08T10:54:14;0.80;;;0.40;;
69551;SDS011;63774;45.292;11.784;2023-08-08T10:56:55;0.70;;;0.30;;
69551;SDS011;63774;45.292;11.784;2023-08-08T10:59:25;1.10;;;0.50;;
69551;SDS011;63774;45.292;11.784;2023-08-08T11:01:53;0.90;;;0.50;;
69551;SDS011;63774;45.292;11.784;2023-08-08T11:04:19;2.00;;;0.50;;
69551;SDS011;63774;45.292;11.784;2023-08-08T11:06:46;2.80;;;0.50;;
69551;SDS011;63774;45.292;11.784;2023-08-08T11:09:13;3.50;;;0.60;;
69551;SDS011;63774;45.292;11.784;2023-08-08T11:11:39;3.90;;;0.50;;
69551;SDS011;63774;45.292;11.784;2023-08-08T11:14:16;2.20;;;0.50;;
69551;SDS011;63774;45.292;11.784;2023-08-08T11:16:43;0.90;;;0.40;;
69551;SDS011;63774;45.292;11.784;2023-08-08T11:19:10;0.80;;;0.50;;
69551;SDS011;63774;45.292;11.784;2023-08-08T11:21:39;1.50;;;0.40;;
69551;SDS011;63774;45.292;11.784;2023-08-08T11:24:07;1.30;;;0.40;;
69551;SDS011;63774;45.292;11.784;2023-08-08T11:26:33;1.30;;;0.50;;
69551;SDS011;63774;45.292;11.784;2023-08-08T11:29:00;0.70;;;0.40;;
69551;SDS011;63774;45.292;11.784;2023-08-08T11:31:28;1.20;;;0.50;;
69551;SDS011;63774;45.292;11.784;2023-08-08T11:33:54;2.10;;;0.60;;
69551;SDS011;63774;45.292;11.784;2023-08-08T11:36:21;1.50;;;0.50;;
69551;SDS011;63774;45.292;11.784;2023-08-08T11:38:48;0.60;;;0.40;;
69551;SDS011;63774;45.292;11.784;2023-08-08T11:41:16;0.70;;;0.30;;
69551;SDS011;63774;45.292;11.784;2023-08-08T11:43:43;2.60;;;0.30;;
69551;SDS011;63774;45.292;11.784;2023-08-08T11:46:11;1.50;;;0.50;;
69551;SDS011;63774;45.292;11.784;2023-08-08T11:48:37;0.60;;;0.40;;
69551;SDS011;63774;45.292;11.784;2023-08-08T11:51:04;0.90;;;0.40;;
69551;SDS011;63774;45.292;11.784;2023-08-08T11:53:29;0.80;;;0.50;;
69551;SDS011;63774;45.292;11.784;2023-08-08T11:55:55;1.10;;;0.50;;
69551;SDS011;63774;45.292;11.784;2023-08-08T11:58:23;1.10;;;0.50;;
69551;SDS011;63774;45.292;11.784;2023-08-08T12:00:50;0.70;;;0.40;;
69551;SDS011;63774;45.292;11.784;2023-08-08T12:03:17;2.10;;;0.60;;
69551;SDS011;63774;45.292;11.784;2023-08-08T12:05:47;1.90;;;0.50;;
69551;SDS011;63774;45.292;11.784;2023-08-08T12:08:13;0.70;;;0.40;;
69551;SDS011;63774;45.292;11.784;2023-08-08T12:10:46;3.00;;;0.40;;
69551;SDS011;63774;45.292;11.784;2023-08-08T12:13:12;1.00;;;0.50;;
69551;SDS011;63774;45.292;11.784;2023-08-08T12:15:38;2.10;;;0.50;;
69551;SDS011;63774;45.292;11.784;2023-08-08T12:18:03;1.30;;;0.50;;
69551;SDS011;63774;45.292;11.784;2023-08-08T12:20:29;4.70;;;0.70;;
69551;SDS011;63774;45.292;11.784;2023-08-08T12:22:56;1.30;;;0.50;;
69551;SDS011;63774;45.292;11.784;2023-08-08T12:25:21;3.20;;;0.50;;
69551;SDS011;63774;45.292;11.784;2023-08-08T12:27:47;1.90;;;0.50;;
69551;SDS011;63774;45.292;11.784;2023-08-08T12:30:13;1.90;;;0.40;;
69551;SDS011;63774;45.292;11.784;2023-08-08T12:32:38;1.60;;;0.60;;
69551;SDS011;63774;45.292;11.784;2023-08-08T12:35:04;1.10;;;0.40;;
69551;SDS011;63774;45.292;11.784;2023-08-08T12:37:31;2.30;;;0.40;;
69551;SDS011;63774;45.292;11.784;2023-08-08T12:39:57;1.40;;;0.40;;
69551;SDS011;63774;45.292;11.784;2023-08-08T12:42:22;1.60;;;0.70;;
69551;SDS011;63774;45.292;11.784;2023-08-08T12:44:48;0.80;;;0.40;;
69551;SDS011;63774;45.292;11.784;2023-08-08T12:47:16;0.60;;;0.40;;
69551;SDS011;63774;45.292;11.784;2023-08-08T12:49:42;1.00;;;0.50;;
69551;SDS011;63774;45.292;11.784;2023-08-08T12:52:07;1.00;;;0.40;;
69551;SDS011;63774;45.292;11.784;2023-08-08T12:54:33;1.60;;;0.50;;
69551;SDS011;63774;45.292;11.784;2023-08-08T12:56:58;1.00;;;0.40;;
69551;SDS011;63774;45.292;11.784;2023-08-08T12:59:23;1.40;;;0.50;;
69551;SDS011;63774;45.292;11.784;2023-08-08T13:01:49;4.20;;;0.80;;
69551;SDS011;63774;45.292;11.784;2023-08-08T13:04:14;3.00;;;0.50;;
69551;SDS011;63774;45.292;11.784;2023-08-08T13:06:39;0.70;;;0.40;;
69551;SDS011;63774;45.292;11.784;2023-08-08T13:09:05;1.20;;;0.40;;
69551;SDS011;63774;45.292;11.784;2023-08-08T13:11:30;0.90;;;0.40;;
69551;SDS011;63774;45.292;11.784;2023-08-08T13:13:56;1.00;;;0.40;;
69551;SDS011;63774;45.292;11.784;2023-08-08T13:16:21;1.20;;;0.50;;
69551;SDS011;63774;45.292;11.784;2023-08-08T13:18:47;0.70;;;0.40;;
69551;SDS011;63774;45.292;11.784;2023-08-08T13:21:12;2.40;;;0.40;;
69551;SDS011;63774;45.292;11.784;2023-08-08T13:23:38;1.70;;;0.50;;
69551;SDS011;63774;45.292;11.784;2023-08-08T13:26:05;1.20;;;0.40;;
69551;SDS011;63774;45.292;11.784;2023-08-08T13:28:30;1.60;;;0.40;;
69551;SDS011;63774;45.292;11.784;2023-08-08T13:30:56;1.00;;;0.50;;
69551;SDS011;63774;45.292;11.784;2023-08-08T13:33:22;1.20;;;0.30;;
69551;SDS011;63774;45.292;11.784;2023-08-08T13:35:47;1.90;;;0.50;;
69551;SDS011;63774;45.292;11.784;2023-08-08T13:38:12;3.70;;;0.70;;
69551;SDS011;63774;45.292;11.784;2023-08-08T13:40:42;3.40;;;0.70;;
69551;SDS011;63774;45.292;11.784;2023-08-08T13:43:08;3.30;;;0.40;;
69551;SDS011;63774;45.292;11.784;2023-08-08T13:45:34;1.50;;;0.40;;
69551;SDS011;63774;45.292;11.784;2023-08-08T13:47:59;1.70;;;0.40;;
69551;SDS011;63774;45.292;11.784;2023-08-08T13:50:25;1.70;;;0.40;;
69551;SDS011;63774;45.292;11.784;2023-08-08T13:52:50;0.50;;;0.30;;
69551;SDS011;63774;45.292;11.784;2023-08-08T13:55:17;0.90;;;0.40;;
69551;SDS011;63774;45.292;11.784;2023-08-08T13:57:43;1.00;;;0.50;;
69551;SDS011;63774;45.292;11.784;2023-08-08T14:00:09;1.40;;;0.40;;
69551;SDS011;63774;45.292;11.784;2023-08-08T14:02:37;1.40;;;0.40;;
69551;SDS011;63774;45.292;11.784;2023-08-08T14:05:03;2.80;;;0.50;;
69551;SDS011;63774;45.292;11.784;2023-08-08T14:07:31;1.80;;;0.30;;
69551;SDS011;63774;45.292;11.784;2023-08-08T14:09:58;0.80;;;0.40;;
69551;SDS011;63774;45.292;11.784;2023-08-08T14:12:24;2.10;;;0.50;;
69551;SDS011;63774;45.292;11.784;2023-08-08T14:14:49;1.30;;;0.40;;
69551;SDS011;63774;45.292;11.784;2023-08-08T14:17:15;1.20;;;0.40;;
69551;SDS011;63774;45.292;11.784;2023-08-08T14:19:40;1.10;;;0.40;;
69551;SDS011;63774;45.292;11.784;2023-08-08T14:22:06;1.00;;;0.40;;
69551;SDS011;63774;45.292;11.784;2023-08-08T14:24:31;1.50;;;0.50;;
69551;SDS011;63774;45.292;11.784;2023-08-08T14:26:56;0.70;;;0.40;;
69551;SDS011;63774;45.292;11.784;2023-08-08T14:29:22;1.70;;;0.40;;
69551;SDS011;63774;45.292;11.784;2023-08-08T14:31:47;1.60;;;0.50;;
69551;SDS011;63774;45.292;11.784;2023-08-08T14:34:14;1.50;;;0.50;;
69551;SDS011;63774;45.292;11.784;2023-08-08T14:36:40;0.50;;;0.50;;